Time;durP1;ratioP1;P1;durP2;ratioP2;P2;SDS_P1;SDS_P2;PMS_P1;PMS_P2;Temp;Humidity;BMP_temperature;BMP_pressure;BME280_temperature;BME280_humidity;BME280_pressure;Samples;Min_cycle;Max_cycle;Signal;HPM_P1;HPM_P2
2024/02/19 00:02:20;;;;;;;;;;;8.50;99.90;;;-146.41;100.00;57768.22;5077845;28;1466;-68
2024/02/19 00:04:47;;;;;;;;;;;8.50;99.90;;;-146.41;100.00;57768.22;5079238;28;1883;-68
2024/02/19 00:07:17;;;;;;;;;;;8.50;99.90;;;-146.41;100.00;57768.22;5081388;28;1407;-67
2024/02/19 00:09:45;;;;;;;;;;;8.50;99.90;;;-146.41;100.00;57768.22;5079361;28;1481;-68
2024/02/19 00:12:12;;;;;;;;;;;8.50;99.90;;;-146.41;100.00;57768.22;5062109;28;1895;-67
2024/02/19 00:14:40;;;;;;;;;;;8.50;99.90;;;-146.41;100.00;57768.22;5062721;28;1528;-68
2024/02/19 00:17:07;;;;;;;;;;;8.60;99.90;;;-146.41;100.00;57768.22;5078139;28;1744;-68
2024/02/19 00:19:34;;;;;;;;;;;8.60;99.90;;;-146.41;100.00;57768.22;5077982;28;1605;-68
2024/02/19 00:22:01;;;;;;;;;;;8.50;99.90;;;-146.41;100.00;57768.22;5076091;28;1418;-68
2024/02/19 00:24:28;;;;;;;;;;;8.60;99.90;;;-146.41;100.00;57768.22;5065567;28;1930;-67
2024/02/19 00:26:55;;;;;;;;;;;8.60;99.90;;;-146.41;100.00;57768.22;5080950;28;1465;-67
2024/02/19 00:29:22;;;;;;;;;;;8.50;99.90;;;-146.41;100.00;57768.22;5075493;28;1483;-67
2024/02/19 00:31:49;;;;;;;;;;;8.60;99.90;;;-146.41;100.00;57768.22;5061750;28;1502;-69
2024/02/19 00:34:16;;;;;;;;;;;8.50;99.90;;;-146.41;100.00;57768.22;5062326;28;1473;-69
2024/02/19 00:36:43;;;;;;;;;;;8.60;99.90;;;-146.41;100.00;57768.22;5063360;28;1454;-67
2024/02/19 00:39:10;;;;;;;;;;;8.50;99.90;;;-146.41;100.00;57768.22;5077423;28;1534;-67
2024/02/19 00:41:36;;;;;;;;;;;8.60;99.90;;;-146.41;100.00;57768.22;5079854;28;1467;-67
2024/02/19 00:44:04;;;;;;;;;;;8.60;99.90;;;-146.41;100.00;57768.22;5047690;28;1906;-67
2024/02/19 00:46:31;;;;;;;;;;;8.70;99.90;;;-146.41;100.00;57768.22;5077822;28;1767;-66
2024/02/19 00:48:58;;;;;;;;;;;8.70;99.90;;;-146.41;100.00;57768.22;5064831;28;1517;-67
2024/02/19 00:51:25;;;;;;;;;;;8.70;99.90;;;-146.41;100.00;57768.22;5077692;28;1506;-67
2024/02/19 00:53:52;;;;;;;;;;;8.70;99.90;;;-146.41;100.00;57768.22;5058558;28;1444;-67
2024/02/19 00:56:18;;;;;;;;;;;8.70;99.90;;;-146.41;100.00;57768.22;5078146;28;1483;-67
2024/02/19 00:58:45;;;;;;;;;;;8.80;99.90;;;-146.41;100.00;57768.22;5063580;28;1401;-67
2024/02/19 01:01:12;;;;;;;;;;;8.80;99.90;;;-146.41;100.00;57768.22;5062495;28;1844;-67
2024/02/19 01:03:39;;;;;;;;;;;8.80;99.90;;;-146.41;100.00;57768.22;5056600;28;1502;-67
2024/02/19 01:06:06;;;;;;;;;;;8.80;99.90;;;-146.41;100.00;57768.22;5077604;28;1736;-67
2024/02/19 01:08:33;;;;;;;;;;;8.90;99.90;;;-146.41;100.00;57768.22;5078260;28;1393;-67
2024/02/19 01:11:00;;;;;;;;;;;8.80;99.90;;;-146.41;100.00;57768.22;5060953;28;1429;-67
2024/02/19 01:13:27;;;;;;;;;;;8.90;99.90;;;-146.41;100.00;57768.22;5076995;28;1446;-67
2024/02/19 01:15:54;;;;;;;;;;;8.90;99.90;;;-146.41;100.00;57768.22;5078797;28;1573;-67
2024/02/19 01:18:22;;;;;;;;;;;8.90;99.90;;;-146.41;100.00;57768.22;5078773;28;1430;-67
2024/02/19 01:20:49;;;;;;;;;;;9.00;99.90;;;-146.41;100.00;57768.22;5079537;28;1443;-67
2024/02/19 01:23:16;;;;;;;;;;;9.00;99.90;;;-146.41;100.00;57768.22;5077932;28;1534;-66
2024/02/19 01:25:43;;;;;;;;;;;9.00;99.90;;;-146.41;100.00;57768.22;5067624;28;1977;-67
2024/02/19 01:28:10;;;;;;;;;;;9.00;99.90;;;-146.41;100.00;57768.22;5079418;28;1482;-67
2024/02/19 01:30:37;;;;;;;;;;;9.00;99.90;;;-146.41;100.00;57768.22;5082219;28;1751;-67
2024/02/19 01:33:04;;;;;;;;;;;9.00;99.90;;;-146.41;100.00;57768.22;5082344;28;1408;-67
2024/02/19 01:35:32;;;;;;;;;;;9.00;99.90;;;-146.41;100.00;57768.22;5064150;28;1488;-67
2024/02/19 01:37:59;;;;;;;;;;;9.00;99.90;;;-146.41;100.00;57768.22;5081128;28;1660;-67
2024/02/19 01:40:26;;;;;;;;;;;8.90;99.90;;;-146.41;100.00;57768.22;5082332;28;1623;-67
2024/02/19 01:43:03;;;;;;;;;;;9.00;99.90;;;-146.41;100.00;57768.22;5066035;28;1519;-67
2024/02/19 01:45:30;;;;;;;;;;;9.00;99.90;;;-146.41;100.00;57768.22;5082068;28;1979;-68
2024/02/19 01:47:58;;;;;;;;;;;9.00;99.90;;;-146.41;100.00;57768.22;5060681;28;1399;-67
2024/02/19 01:50:31;;;;;;;;;;;9.10;99.90;;;-146.41;100.00;57768.22;5081636;28;1445;-67
2024/02/19 01:53:01;;;;;;;;;;;9.10;99.90;;;-146.41;100.00;57768.22;5051893;28;1376;-67
2024/02/19 01:55:28;;;;;;;;;;;9.00;99.90;;;-146.41;100.00;57768.22;5066359;28;1567;-68
2024/02/19 01:57:55;;;;;;;;;;;9.00;99.90;;;-146.41;100.00;57768.22;5064498;28;1318;-68
2024/02/19 02:00:22;;;;;;;;;;;8.90;99.90;;;-146.41;100.00;57768.22;5063930;28;1425;-67
2024/02/19 02:02:50;;;;;;;;;;;8.90;99.90;;;-146.41;100.00;57768.22;5065270;28;1317;-68
2024/02/19 02:05:17;;;;;;;;;;;8.80;99.90;;;-146.41;100.00;57768.22;5076908;28;1894;-67
2024/02/19 02:07:44;;;;;;;;;;;8.80;99.90;;;-146.41;100.00;57768.22;5080690;28;1417;-68
2024/02/19 02:10:11;;;;;;;;;;;8.80;99.90;;;-146.41;100.00;57768.22;5080511;28;1294;-68
2024/02/19 02:12:38;;;;;;;;;;;8.90;99.90;;;-146.41;100.00;57768.22;5079808;28;1430;-66
2024/02/19 02:15:05;;;;;;;;;;;8.90;99.90;;;-146.41;100.00;57768.22;5069046;28;1345;-66
2024/02/19 02:17:32;;;;;;;;;;;8.80;99.90;;;-146.41;100.00;57768.22;5062097;28;1406;-67
2024/02/19 02:19:59;;;;;;;;;;;8.80;99.90;;;-146.41;100.00;57768.22;5076146;28;1307;-69
2024/02/19 02:22:26;;;;;;;;;;;8.80;99.90;;;-146.41;100.00;57768.22;5082171;28;1481;-67
2024/02/19 02:24:53;;;;;;;;;;;8.70;99.90;;;-146.41;100.00;57768.22;5080404;28;2016;-67
2024/02/19 02:27:20;;;;;;;;;;;8.70;99.90;;;-146.41;100.00;57768.22;5065478;28;1325;-67
2024/02/19 02:29:47;;;;;;;;;;;8.60;99.90;;;-146.41;100.00;57768.22;5080452;28;1178;-66
2024/02/19 02:32:14;;;;;;;;;;;8.60;99.90;;;-146.41;100.00;57768.22;5080376;28;1431;-66
2024/02/19 02:34:40;;;;;;;;;;;8.60;99.90;;;-146.41;100.00;57768.22;5062659;28;1389;-66
2024/02/19 02:37:07;;;;;;;;;;;8.50;99.90;;;-146.41;100.00;57768.22;5078776;28;1210;-68
2024/02/19 02:39:34;;;;;;;;;;;8.50;99.90;;;-146.41;100.00;57768.22;5081968;28;1307;-68
2024/02/19 02:42:01;;;;;;;;;;;8.40;99.90;;;-146.41;100.00;57768.22;5081026;28;1487;-68
2024/02/19 02:44:28;;;;;;;;;;;8.50;99.90;;;-146.41;100.00;57768.22;5063359;28;2001;-69
2024/02/19 02:46:55;;;;;;;;;;;8.40;99.90;;;-146.41;100.00;57768.22;5061446;28;1449;-69
2024/02/19 02:49:22;;;;;;;;;;;8.30;99.90;;;-146.41;100.00;57768.22;5075914;28;1309;-66
2024/02/19 02:51:49;;;;;;;;;;;8.30;99.90;;;-146.41;100.00;57768.22;5081640;28;1356;-68
2024/02/19 02:54:15;;;;;;;;;;;8.30;99.90;;;-146.41;100.00;57768.22;5082144;28;1334;-68
2024/02/19 02:56:43;;;;;;;;;;;8.20;99.90;;;-146.41;100.00;57768.22;5064337;28;1109;-68
2024/02/19 02:59:09;;;;;;;;;;;8.20;99.90;;;-146.41;100.00;57768.22;5081551;28;1263;-68
2024/02/19 03:01:36;;;;;;;;;;;8.20;99.90;;;-146.41;100.00;57768.22;5063100;28;1280;-68
2024/02/19 03:04:03;;;;;;;;;;;8.20;99.90;;;-146.41;100.00;57768.22;5079558;28;1361;-68
2024/02/19 03:06:30;;;;;;;;;;;8.20;99.90;;;-146.41;100.00;57768.22;5080041;28;1913;-68
2024/02/19 03:08:57;;;;;;;;;;;8.20;99.90;;;-146.41;100.00;57768.22;5063106;28;1283;-67
2024/02/19 03:11:24;;;;;;;;;;;8.20;99.90;;;-146.41;100.00;57768.22;5081481;28;1366;-68
2024/02/19 03:13:52;;;;;;;;;;;8.20;99.90;;;-146.41;100.00;57768.22;5082404;28;1286;-68
2024/02/19 03:16:19;;;;;;;;;;;8.20;99.90;;;-146.41;100.00;57768.22;5063922;28;1436;-68
2024/02/19 03:18:46;;;;;;;;;;;8.20;99.90;;;-146.41;100.00;57768.22;5062502;28;1326;-68
2024/02/19 03:21:15;;;;;;;;;;;8.20;99.90;;;-146.41;100.00;57768.22;5078914;28;1300;-68
2024/02/19 03:23:49;;;;;;;;;;;8.20;99.90;;;-146.41;100.00;57768.22;5058979;28;1392;-68
2024/02/19 03:26:23;;;;;;;;;;;8.30;99.90;;;-146.41;100.00;57768.22;5081277;28;1902;-68
2024/02/19 03:29:11;;;;;;;;;;;8.30;99.90;;;-146.41;100.00;57768.22;5068194;28;1258;-68
2024/02/19 03:31:39;;;;;;;;;;;8.20;99.90;;;-146.41;100.00;57768.22;5076559;28;1473;-68
2024/02/19 03:34:07;;;;;;;;;;;8.20;99.90;;;-146.41;100.00;57768.22;5077969;28;1405;-68
2024/02/19 03:36:34;;;;;;;;;;;8.10;99.90;;;-146.41;100.00;57768.22;5061079;28;1356;-67
2024/02/19 03:39:00;;;;;;;;;;;8.10;99.90;;;-146.41;100.00;57768.22;5061343;28;1078;-68
2024/02/19 03:41:27;;;;;;;;;;;8.10;99.90;;;-146.41;100.00;57768.22;5062778;28;1429;-68
2024/02/19 03:43:54;;;;;;;;;;;8.10;99.90;;;-146.41;100.00;57768.22;5077995;28;1234;-68
2024/02/19 03:46:21;;;;;;;;;;;8.10;99.90;;;-146.41;100.00;57768.22;5078010;28;1972;-68
2024/02/19 03:48:48;;;;;;;;;;;8.20;99.90;;;-146.41;100.00;57768.22;5075802;28;1514;-68
2024/02/19 03:51:15;;;;;;;;;;;8.10;99.90;;;-146.41;100.00;57768.22;5062369;28;1389;-68
2024/02/19 03:53:41;;;;;;;;;;;8.10;99.90;;;-146.41;100.00;57768.22;5078838;28;1035;-68
2024/02/19 03:56:08;;;;;;;;;;;8.20;99.90;;;-146.41;100.00;57768.22;5070696;28;1101;-69
2024/02/19 03:58:35;;;;;;;;;;;8.10;99.90;;;-146.41;100.00;57768.22;5075808;28;1634;-69
2024/02/19 04:01:02;;;;;;;;;;;8.20;99.90;;;-146.41;100.00;57768.22;5050644;28;1436;-69
2024/02/19 04:03:34;;;;;;;;;;;8.20;99.90;;;-146.41;100.00;57768.22;5075640;28;1497;-67
2024/02/19 04:06:01;;;;;;;;;;;8.20;99.90;;;-146.41;100.00;57768.22;5044870;28;1997;-69
2024/02/19 04:08:28;;;;;;;;;;;8.20;99.90;;;-146.41;100.00;57768.22;5068279;28;1421;-69
2024/02/19 04:10:55;;;;;;;;;;;8.20;99.90;;;-146.41;100.00;57768.22;5078493;28;1450;-68
2024/02/19 04:13:21;;;;;;;;;;;8.20;99.90;;;-146.41;100.00;57768.22;5047598;28;1286;-69
2024/02/19 04:15:48;;;;;;;;;;;8.20;99.90;;;-146.41;100.00;57768.22;5079332;28;1361;-67
2024/02/19 04:18:15;;;;;;;;;;;8.30;99.90;;;-146.41;100.00;57768.22;5074085;28;1337;-66
2024/02/19 04:20:42;;;;;;;;;;;8.20;99.90;;;-146.41;100.00;57768.22;5080076;28;1314;-69
2024/02/19 04:23:09;;;;;;;;;;;8.20;99.90;;;-146.41;100.00;57768.22;5079808;28;1932;-69
2024/02/19 04:25:36;;;;;;;;;;;8.20;99.90;;;-146.41;100.00;57768.22;5078768;28;1883;-69
2024/02/19 04:28:03;;;;;;;;;;;8.20;99.90;;;-146.41;100.00;57768.22;5077710;28;1173;-69
2024/02/19 04:30:30;;;;;;;;;;;8.20;99.90;;;-146.41;100.00;57768.22;5078113;28;1749;-68
2024/02/19 04:32:56;;;;;;;;;;;8.30;99.90;;;-146.41;100.00;57768.22;5077140;28;1309;-68
2024/02/19 04:35:23;;;;;;;;;;;8.30;99.90;;;-146.41;100.00;57768.22;5077023;28;1054;-69
2024/02/19 04:37:50;;;;;;;;;;;8.30;99.90;;;-146.41;100.00;57768.22;5079067;28;1232;-69
2024/02/19 04:40:17;;;;;;;;;;;8.30;99.90;;;-146.41;100.00;57768.22;5062946;28;1545;-68
2024/02/19 04:42:44;;;;;;;;;;;8.20;99.90;;;-146.41;100.00;57768.22;5078077;28;1298;-68
2024/02/19 04:45:11;;;;;;;;;;;8.20;99.90;;;-146.41;100.00;57768.22;5078870;28;1980;-69
2024/02/19 04:47:37;;;;;;;;;;;8.20;99.90;;;-146.41;100.00;57768.22;5077360;28;1329;-69
2024/02/19 04:50:05;;;;;;;;;;;8.20;99.90;;;-146.41;100.00;57768.22;5078840;28;1366;-68
2024/02/19 04:52:32;;;;;;;;;;;8.20;99.90;;;-146.41;100.00;57768.22;5079866;28;1559;-66
2024/02/19 04:54:59;;;;;;;;;;;8.20;99.90;;;-146.41;100.00;57768.22;5073511;28;1333;-66
2024/02/19 04:57:26;;;;;;;;;;;8.20;99.90;;;-146.41;100.00;57768.22;5078183;28;1215;-66
2024/02/19 04:59:53;;;;;;;;;;;8.10;99.90;;;-146.41;100.00;57768.22;5074812;28;1386;-69
2024/02/19 05:02:20;;;;;;;;;;;8.10;99.90;;;-146.41;100.00;57768.22;5085553;28;1428;-66
2024/02/19 05:04:47;;;;;;;;;;;8.00;99.90;;;-146.41;100.00;57768.22;5085075;28;1914;-67
2024/02/19 05:07:15;;;;;;;;;;;8.00;99.90;;;-146.41;100.00;57768.22;5083936;28;1952;-67
2024/02/19 05:09:42;;;;;;;;;;;8.00;99.90;;;-146.41;100.00;57768.22;5082214;28;1131;-69
2024/02/19 05:12:09;;;;;;;;;;;8.00;99.90;;;-146.41;100.00;57768.22;5086131;28;1406;-68
2024/02/19 05:14:36;;;;;;;;;;;8.00;99.90;;;-146.41;100.00;57768.22;5083845;28;1356;-68
2024/02/19 05:17:03;;;;;;;;;;;8.00;99.90;;;-146.41;100.00;57768.22;5080751;28;1392;-68
2024/02/19 05:19:30;;;;;;;;;;;8.10;99.90;;;-146.41;100.00;57768.22;5084407;28;1787;-68
2024/02/19 05:21:57;;;;;;;;;;;8.00;99.90;;;-146.41;100.00;57768.22;5083640;28;1464;-66
2024/02/19 05:24:23;;;;;;;;;;;8.10;99.90;;;-146.41;100.00;57768.22;5068068;28;1317;-68
2024/02/19 05:26:50;;;;;;;;;;;8.10;99.90;;;-146.41;100.00;57768.22;5052018;28;1906;-68
2024/02/19 05:29:17;;;;;;;;;;;8.10;99.90;;;-146.41;100.00;57768.22;5082701;28;1444;-68
2024/02/19 05:31:44;;;;;;;;;;;8.10;99.90;;;-146.41;100.00;57768.22;5069472;28;1471;-69
2024/02/19 05:34:11;;;;;;;;;;;8.10;99.90;;;-146.41;100.00;57768.22;5085741;28;1292;-68
2024/02/19 05:36:38;;;;;;;;;;;8.10;99.90;;;-146.41;100.00;57768.22;5087053;28;1085;-68
2024/02/19 05:39:10;;;;;;;;;;;8.10;99.90;;;-146.41;100.00;57768.22;5079722;28;1114;-67
2024/02/19 05:41:40;;;;;;;;;;;8.10;99.90;;;-146.41;100.00;57768.22;5065483;28;1374;-67
2024/02/19 05:44:07;;;;;;;;;;;8.20;99.90;;;-146.41;100.00;57768.22;5083828;28;1493;-67
2024/02/19 05:46:34;;;;;;;;;;;8.10;99.90;;;-146.41;100.00;57768.22;5068285;28;1906;-68
2024/02/19 05:49:01;;;;;;;;;;;8.10;99.90;;;-146.41;100.00;57768.22;5083621;28;2001;-68
2024/02/19 05:51:28;;;;;;;;;;;8.20;99.90;;;-146.41;100.00;57768.22;5082005;28;1433;-68
2024/02/19 05:53:55;;;;;;;;;;;8.20;99.90;;;-146.41;100.00;57768.22;5064917;28;1285;-68
2024/02/19 05:56:21;;;;;;;;;;;8.20;99.90;;;-146.41;100.00;57768.22;5082590;28;1372;-68
2024/02/19 05:58:48;;;;;;;;;;;8.20;99.90;;;-146.41;100.00;57768.22;5081674;28;1373;-68
2024/02/19 06:01:16;;;;;;;;;;;8.20;99.90;;;-146.41;100.00;57768.22;5087991;28;1488;-68
2024/02/19 06:03:44;;;;;;;;;;;8.20;99.90;;;-146.41;100.00;57768.22;5083582;28;1341;-68
2024/02/19 06:06:11;;;;;;;;;;;8.20;99.90;;;-146.41;100.00;57768.22;5085519;28;1901;-68
2024/02/19 06:08:38;;;;;;;;;;;8.30;99.90;;;-146.41;100.00;57768.22;5083383;28;1561;-68
2024/02/19 06:11:05;;;;;;;;;;;8.20;99.90;;;-146.41;100.00;57768.22;5081398;28;1486;-69
2024/02/19 06:13:32;;;;;;;;;;;8.20;99.90;;;-146.41;100.00;57768.22;5051082;28;1383;-68
2024/02/19 06:15:59;;;;;;;;;;;8.10;99.90;;;-146.41;100.00;57768.22;5062762;28;1407;-68
2024/02/19 06:18:26;;;;;;;;;;;8.00;99.90;;;-146.41;100.00;57768.22;5063876;28;1213;-68
2024/02/19 06:20:53;;;;;;;;;;;7.90;99.90;;;-146.41;100.00;57768.22;5081171;28;1315;-68
2024/02/19 06:23:20;;;;;;;;;;;7.90;99.90;;;-146.41;100.00;57768.22;5060396;28;1166;-68
2024/02/19 06:25:46;;;;;;;;;;;7.90;99.90;;;-146.41;100.00;57768.22;5079752;28;2014;-68
2024/02/19 06:28:13;;;;;;;;;;;7.90;99.90;;;-146.41;100.00;57768.22;5079391;28;1037;-68
2024/02/19 06:30:40;;;;;;;;;;;7.90;99.90;;;-146.41;100.00;57768.22;5052951;28;1470;-68
2024/02/19 06:33:07;;;;;;;;;;;7.90;99.90;;;-146.41;100.00;57768.22;5067754;28;1454;-68
2024/02/19 06:35:34;;;;;;;;;;;7.90;99.90;;;-146.41;100.00;57768.22;5063614;28;1002;-68
2024/02/19 06:38:01;;;;;;;;;;;8.00;99.90;;;-146.41;100.00;57768.22;5081989;28;1048;-69
2024/02/19 06:40:28;;;;;;;;;;;7.90;99.90;;;-146.41;100.00;57768.22;5078077;28;1385;-69
2024/02/19 06:42:55;;;;;;;;;;;8.00;99.90;;;-146.41;100.00;57768.22;5080660;28;1102;-69
2024/02/19 06:45:22;;;;;;;;;;;7.90;99.90;;;-146.41;100.00;57768.22;5063311;28;1902;-69
2024/02/19 06:47:49;;;;;;;;;;;8.00;99.90;;;-146.41;100.00;57768.22;5080268;28;1081;-68
2024/02/19 06:50:16;;;;;;;;;;;8.00;99.90;;;-146.41;100.00;57768.22;5060870;28;1406;-69
2024/02/19 06:52:45;;;;;;;;;;;8.00;99.90;;;-146.41;100.00;57768.22;5077895;28;1082;-68
2024/02/19 06:55:14;;;;;;;;;;;8.10;99.90;;;-146.41;100.00;57768.22;5079379;28;1165;-68
2024/02/19 06:57:41;;;;;;;;;;;8.10;99.90;;;-146.41;100.00;57768.22;5077518;28;1425;-68
2024/02/19 07:00:09;;;;;;;;;;;8.10;99.90;;;-146.41;100.00;57768.22;5077598;28;1417;-67
2024/02/19 07:02:37;;;;;;;;;;;8.10;99.90;;;-146.41;100.00;57768.22;5078217;28;1057;-68
2024/02/19 07:05:05;;;;;;;;;;;8.10;99.90;;;-146.41;100.00;57768.22;5077966;28;1070;-68
2024/02/19 07:07:33;;;;;;;;;;;8.00;99.90;;;-146.41;100.00;57768.22;5078597;28;1906;-68
2024/02/19 07:10:00;;;;;;;;;;;8.00;99.90;;;-146.41;100.00;57768.22;5061615;28;1334;-68
2024/02/19 07:12:27;;;;;;;;;;;8.10;99.90;;;-146.41;100.00;57768.22;5064401;28;1291;-68
2024/02/19 07:14:55;;;;;;;;;;;8.10;99.90;;;-146.41;100.00;57768.22;5078452;28;1372;-68
2024/02/19 07:17:22;;;;;;;;;;;8.10;99.90;;;-146.41;100.00;57768.22;5077740;28;1391;-68
2024/02/19 07:19:52;;;;;;;;;;;8.20;99.90;;;-146.41;100.00;57768.22;5072654;28;1438;-67
2024/02/19 07:22:18;;;;;;;;;;;8.10;99.90;;;-146.41;100.00;57768.22;5028784;28;1096;-67
2024/02/19 07:24:46;;;;;;;;;;;8.20;99.90;;;-146.41;100.00;57768.22;5074187;28;1269;-68
2024/02/19 07:27:13;;;;;;;;;;;8.10;99.90;;;-146.41;100.00;57768.22;5056075;28;1905;-68
2024/02/19 07:29:41;;;;;;;;;;;8.00;99.90;;;-146.41;100.00;57768.22;5075321;28;1321;-68
2024/02/19 07:32:08;;;;;;;;;;;8.10;99.90;;;-146.41;100.00;57768.22;5071037;28;1444;-67
2024/02/19 07:34:34;;;;;;;;;;;8.20;99.90;;;-146.41;100.00;57768.22;5076378;28;1105;-68
2024/02/19 07:37:01;;;;;;;;;;;8.20;99.90;;;-146.41;100.00;57768.22;5075710;28;1105;-68
2024/02/19 07:39:28;;;;;;;;;;;8.20;99.90;;;-146.41;100.00;57768.22;5056868;28;1094;-68
2024/02/19 07:41:55;;;;;;;;;;;8.20;99.90;;;-146.41;100.00;57768.22;5074603;28;1342;-68
2024/02/19 07:44:22;;;;;;;;;;;8.20;99.90;;;-146.41;100.00;57768.22;5054419;28;1377;-68
2024/02/19 07:46:49;;;;;;;;;;;8.30;99.90;;;-146.41;100.00;57768.22;5076169;28;1914;-68
2024/02/19 07:49:16;;;;;;;;;;;8.40;99.90;;;-146.41;100.00;57768.22;5073059;28;1065;-68
2024/02/19 07:51:43;;;;;;;;;;;8.40;99.90;;;-146.41;100.00;57768.22;5073838;28;1430;-67
2024/02/19 07:54:10;;;;;;;;;;;8.40;99.90;;;-146.41;100.00;57768.22;5072086;28;1509;-67
2024/02/19 07:56:36;;;;;;;;;;;8.50;99.90;;;-146.41;100.00;57768.22;5071636;28;1104;-66
2024/02/19 07:59:03;;;;;;;;;;;8.50;99.90;;;-146.41;100.00;57768.22;5054039;28;1141;-66
2024/02/19 08:01:30;;;;;;;;;;;8.40;99.90;;;-146.41;100.00;57768.22;5078009;28;1502;-66
2024/02/19 08:03:57;;;;;;;;;;;8.50;99.90;;;-146.41;100.00;57768.22;5070755;28;1143;-66
2024/02/19 08:06:24;;;;;;;;;;;8.70;99.90;;;-146.41;100.00;57768.22;5054982;28;1902;-66
2024/02/19 08:08:51;;;;;;;;;;;8.70;99.90;;;-146.41;100.00;57768.22;5070892;28;1371;-67
2024/02/19 08:11:18;;;;;;;;;;;8.80;99.90;;;-146.41;100.00;57768.22;5070240;28;1332;-67
2024/02/19 08:13:45;;;;;;;;;;;8.80;99.90;;;-146.41;100.00;57768.22;5072976;28;1156;-67
2024/02/19 08:16:13;;;;;;;;;;;8.80;99.90;;;-146.41;100.00;57768.22;5073298;28;1424;-65
2024/02/19 08:18:41;;;;;;;;;;;8.90;99.90;;;-146.41;100.00;57768.22;5041853;28;1096;-66
2024/02/19 08:21:08;;;;;;;;;;;8.90;99.90;;;-146.41;100.00;57768.22;5071918;28;1412;-65
2024/02/19 08:23:34;;;;;;;;;;;8.90;99.90;;;-146.41;100.00;57768.22;5070225;28;1121;-66
2024/02/19 08:26:02;;;;;;;;;;;8.60;99.90;;;-146.41;100.00;57768.22;5058021;28;1906;-68
2024/02/19 08:28:29;;;;;;;;;;;8.70;99.90;;;-146.41;100.00;57768.22;5070904;28;1220;-69
2024/02/19 08:30:56;;;;;;;;;;;8.80;99.90;;;-146.41;100.00;57768.22;5071178;28;1391;-69
2024/02/19 08:33:24;;;;;;;;;;;8.90;99.90;;;-146.41;100.00;57768.22;5057844;28;1086;-66
2024/02/19 08:35:51;;;;;;;;;;;9.00;99.90;;;-146.41;100.00;57768.22;5072580;28;1351;-67
2024/02/19 08:38:18;;;;;;;;;;;9.00;99.90;;;-146.41;100.00;57768.22;5071619;28;1485;-68
2024/02/19 08:40:45;;;;;;;;;;;9.00;99.90;;;-146.41;100.00;57768.22;5071340;28;1248;-68
2024/02/19 08:43:12;;;;;;;;;;;9.00;99.90;;;-146.41;100.00;57768.22;5069468;28;1120;-68
2024/02/19 08:45:42;;;;;;;;;;;9.00;99.90;;;-146.41;100.00;57768.22;5074995;28;1470;-69
2024/02/19 08:48:09;;;;;;;;;;;9.10;99.90;;;-146.41;100.00;57768.22;5055537;28;1914;-68
2024/02/19 08:50:36;;;;;;;;;;;9.00;99.90;;;-146.41;100.00;57768.22;5072177;28;1295;-69
2024/02/19 08:53:03;;;;;;;;;;;9.10;99.90;;;-146.41;100.00;57768.22;5071017;28;1121;-69
2024/02/19 08:55:30;;;;;;;;;;;9.10;99.90;;;-146.41;100.00;57768.22;5073151;28;1038;-69
2024/02/19 08:57:57;;;;;;;;;;;9.20;99.90;;;-146.41;100.00;57768.22;5056285;28;1158;-68
2024/02/19 09:00:25;;;;;;;;;;;9.30;99.90;;;-146.41;100.00;57768.22;5058433;28;1417;-68
2024/02/19 09:02:55;;;;;;;;;;;9.30;99.90;;;-146.41;100.00;57768.22;5070523;28;2072;-68
2024/02/19 09:05:22;;;;;;;;;;;9.20;99.90;;;-146.41;100.00;57768.22;5073853;28;1320;-68
2024/02/19 09:07:49;;;;;;;;;;;9.30;99.90;;;-146.41;100.00;57768.22;5072001;28;1906;-68
2024/02/19 09:10:16;;;;;;;;;;;9.30;99.90;;;-146.41;100.00;57768.22;5051520;28;1399;-67
2024/02/19 09:12:43;;;;;;;;;;;9.30;99.90;;;-146.41;100.00;57768.22;5052943;28;1407;-67
2024/02/19 09:15:10;;;;;;;;;;;9.40;99.90;;;-146.41;100.00;57768.22;5067946;28;1505;-68
2024/02/19 09:17:37;;;;;;;;;;;9.50;99.90;;;-146.41;100.00;57768.22;5059398;28;1119;-67
2024/02/19 09:20:06;;;;;;;;;;;9.60;99.90;;;-146.41;100.00;57768.22;5070773;28;1337;-66
2024/02/19 09:22:33;;;;;;;;;;;9.70;99.90;;;-146.41;100.00;57768.22;5071383;28;1170;-69
2024/02/19 09:25:00;;;;;;;;;;;9.80;99.90;;;-146.41;100.00;57768.22;5072450;28;1290;-69
2024/02/19 09:27:27;;;;;;;;;;;9.80;99.90;;;-146.41;100.00;57768.22;5073240;28;1994;-69
2024/02/19 09:29:56;;;;;;;;;;;9.80;99.90;;;-146.41;100.00;57768.22;5071500;28;1383;-68
2024/02/19 09:32:23;;;;;;;;;;;9.80;99.90;;;-146.41;100.00;57768.22;5073252;28;1840;-66
2024/02/19 09:34:50;;;;;;;;;;;9.90;99.90;;;-146.41;100.00;57768.22;5072106;28;1135;-68
2024/02/19 09:37:17;;;;;;;;;;;10.10;99.90;;;-146.41;100.00;57768.22;5070378;28;1125;-66
2024/02/19 09:39:49;;;;;;;;;;;9.80;99.90;;;-146.41;100.00;57768.22;5072897;28;1073;-68
2024/02/19 09:42:16;;;;;;;;;;;10.10;99.90;;;-146.41;100.00;57768.22;5071515;28;1190;-68
2024/02/19 09:44:43;;;;;;;;;;;10.10;99.90;;;-146.41;100.00;57768.22;5069237;28;1348;-68
2024/02/19 09:47:12;;;;;;;;;;;10.10;99.90;;;-146.41;100.00;57768.22;5072496;28;1902;-68
2024/02/19 09:49:39;;;;;;;;;;;9.90;99.90;;;-146.41;100.00;57768.22;5063052;28;1308;-68
2024/02/19 09:52:08;;;;;;;;;;;10.10;99.90;;;-146.41;100.00;57768.22;5076081;28;1319;-68
2024/02/19 09:54:35;;;;;;;;;;;10.20;99.90;;;-146.41;100.00;57768.22;5059770;28;1394;-68
2024/02/19 09:57:02;;;;;;;;;;;10.30;99.90;;;-146.41;100.00;57768.22;5075185;28;1302;-68
2024/02/19 09:59:31;;;;;;;;;;;10.30;99.90;;;-146.41;100.00;57768.22;5048204;28;1524;-68
2024/02/19 10:01:58;;;;;;;;;;;10.10;99.90;;;-146.41;100.00;57768.22;5061814;28;1462;-69
2024/02/19 10:04:27;;;;;;;;;;;10.10;99.90;;;-146.41;100.00;57768.22;5055576;28;1066;-67
2024/02/19 10:06:59;;;;;;;;;;;10.10;99.90;;;-146.41;100.00;57768.22;5076283;28;1914;-67
2024/02/19 10:09:26;;;;;;;;;;;10.20;99.90;;;-146.41;100.00;57768.22;5061445;28;1460;-67
2024/02/19 10:11:57;;;;;;;;;;;10.20;99.90;;;-146.41;100.00;57768.22;5076853;28;1252;-67
2024/02/19 10:14:24;;;;;;;;;;;10.00;99.90;;;-146.41;100.00;57768.22;5075138;28;1381;-69
2024/02/19 10:16:51;;;;;;;;;;;9.90;99.90;;;-146.41;100.00;57768.22;5078794;28;1439;-69
2024/02/19 10:19:19;;;;;;;;;;;9.90;99.90;;;-146.41;100.00;57768.22;5072516;28;1113;-69
2024/02/19 10:21:50;;;;;;;;;;;9.80;99.90;;;-146.41;100.00;57768.22;5076358;28;1213;-66
2024/02/19 10:24:17;;;;;;;;;;;9.90;99.90;;;-146.41;100.00;57768.22;5077140;28;1460;-68
2024/02/19 10:26:45;;;;;;;;;;;9.80;99.90;;;-146.41;100.00;57768.22;5060943;28;1914;-69
2024/02/19 10:29:12;;;;;;;;;;;9.90;99.90;;;-146.41;100.00;57768.22;5073173;28;1241;-67
2024/02/19 10:31:40;;;;;;;;;;;10.10;99.90;;;-146.41;100.00;57768.22;5062556;28;1414;-67
2024/02/19 10:34:09;;;;;;;;;;;10.10;99.90;;;-146.41;100.00;57768.22;5059486;28;1330;-67
2024/02/19 10:36:36;;;;;;;;;;;10.10;99.90;;;-146.41;100.00;57768.22;5077117;28;1152;-67
2024/02/19 10:39:04;;;;;;;;;;;10.40;99.90;;;-146.41;100.00;57768.22;5062758;28;1118;-67
2024/02/19 10:41:34;;;;;;;;;;;10.60;99.90;;;-146.41;100.00;57768.22;5074722;28;1306;-68
2024/02/19 10:44:01;;;;;;;;;;;10.60;99.90;;;-146.41;100.00;57768.22;5051920;28;1698;-67
2024/02/19 10:46:29;;;;;;;;;;;10.50;99.90;;;-146.41;100.00;57768.22;5056761;28;1986;-67
2024/02/19 10:48:58;;;;;;;;;;;10.50;99.90;;;-146.41;100.00;57768.22;5056910;28;1337;-67
2024/02/19 10:51:25;;;;;;;;;;;10.60;99.90;;;-146.41;100.00;57768.22;5075122;28;1594;-67
2024/02/19 10:53:59;;;;;;;;;;;10.70;99.90;;;-146.41;100.00;57768.22;5058970;28;2060;-68
2024/02/19 10:56:34;;;;;;;;;;;10.90;99.90;;;-146.41;100.00;57768.22;5075458;28;1093;-67
2024/02/19 10:59:01;;;;;;;;;;;11.00;99.90;;;-146.41;100.00;57768.22;5073587;28;1888;-68
2024/02/19 11:01:40;;;;;;;;;;;11.00;99.90;;;-146.41;100.00;57768.22;5048751;28;1446;-68
2024/02/19 11:04:16;;;;;;;;;;;11.00;99.90;;;-146.41;100.00;57768.22;5076734;28;1168;-67
2024/02/19 11:06:54;;;;;;;;;;;11.10;99.90;;;-146.41;100.00;57768.22;5071311;28;1983;-67
2024/02/19 11:09:33;;;;;;;;;;;11.10;99.90;;;-146.41;100.00;57768.22;5076001;28;1375;-68
2024/02/19 11:12:01;;;;;;;;;;;11.00;99.90;;;-146.41;100.00;57768.22;5073048;28;1433;-68